createdAt,value
2019-02-17T00:01:42.529Z,58.08
2019-02-17T00:04:11.580Z,58.35
2019-02-17T00:06:40.642Z,61.28
2019-02-17T00:09:11.868Z,60.73
2019-02-17T00:11:40.838Z,55.50
2019-02-17T00:14:09.978Z,55.78
2019-02-17T00:16:39.057Z,58.60
2019-02-17T00:19:07.978Z,64.17
2019-02-17T00:21:36.913Z,57.48
2019-02-17T00:24:06.006Z,58.98
2019-02-17T00:26:34.960Z,58.65
2019-02-17T00:29:03.975Z,56.40
2019-02-17T00:31:33.082Z,59.58
2019-02-17T00:34:02.105Z,59.10
2019-02-17T00:36:31.030Z,56.33
2019-02-17T00:39:00.028Z,59.30
2019-02-17T00:41:29.058Z,59.88
2019-02-17T00:43:57.891Z,55.45
2019-02-17T00:46:26.873Z,55.33
2019-02-17T00:48:55.815Z,61.42
2019-02-17T00:51:24.684Z,59.88
2019-02-17T00:53:53.582Z,56.50
2019-02-17T00:56:22.539Z,52.47
2019-02-17T00:58:51.476Z,53.38
2019-02-17T01:01:22.673Z,50.48
2019-02-17T01:03:51.552Z,56.23
2019-02-17T01:06:20.911Z,54.25
2019-02-17T01:08:50.236Z,54.40
2019-02-17T01:11:19.572Z,56.90
2019-02-17T01:13:48.415Z,55.58
2019-02-17T01:16:17.398Z,59.15
2019-02-17T01:18:46.409Z,55.92
2019-02-17T01:21:15.840Z,50.67
2019-02-17T01:23:44.882Z,49.48
2019-02-17T01:26:13.878Z,50.03
2019-02-17T01:28:44.877Z,53.70
2019-02-17T01:31:13.967Z,49.75
2019-02-17T01:33:43.688Z,50.85
2019-02-17T01:36:12.641Z,53.52
2019-02-17T01:38:44.801Z,50.58
2019-02-17T01:41:13.836Z,49.70
2019-02-17T01:43:42.684Z,48.63
2019-02-17T01:46:11.959Z,47.80
2019-02-17T01:48:40.988Z,46.75
2019-02-17T01:51:09.977Z,45.52
2019-02-17T01:53:38.933Z,50.33
2019-02-17T01:56:07.788Z,48.00
2019-02-17T01:58:36.731Z,50.65
2019-02-17T02:01:05.765Z,50.98
2019-02-17T02:03:35.317Z,48.92
2019-02-17T02:06:04.464Z,50.90
2019-02-17T02:08:33.475Z,47.88
2019-02-17T02:11:02.892Z,52.03
2019-02-17T02:13:32.208Z,52.60
2019-02-17T02:16:01.204Z,52.15
2019-02-17T02:18:30.201Z,59.27
2019-02-17T02:20:59.129Z,52.78
2019-02-17T02:23:28.108Z,52.17
2019-02-17T02:25:57.164Z,49.13
2019-02-17T02:28:26.503Z,51.23
2019-02-17T02:30:55.808Z,49.27
2019-02-17T02:33:25.035Z,52.58
2019-02-17T02:35:53.953Z,53.45
2019-02-17T02:38:22.847Z,51.75
2019-02-17T02:40:52.299Z,53.13
2019-02-17T02:43:21.380Z,52.27
2019-02-17T02:45:50.302Z,50.95
2019-02-17T02:48:19.229Z,54.30
2019-02-17T02:50:48.164Z,49.98
2019-02-17T02:53:17.308Z,51.23
2019-02-17T02:55:46.293Z,54.42
2019-02-17T02:58:15.216Z,49.45
2019-02-17T03:00:44.173Z,52.30
2019-02-17T03:03:13.164Z,50.10
2019-02-17T03:05:51.416Z,47.73
2019-02-17T03:08:20.424Z,51.15
2019-02-17T03:10:49.358Z,50.08
2019-02-17T03:13:18.248Z,48.17
2019-02-17T03:15:47.206Z,49.25
2019-02-17T03:18:16.058Z,57.17
2019-02-17T03:20:45.232Z,55.90
2019-02-17T03:23:14.081Z,52.73
2019-02-17T03:25:45.112Z,52.13
2019-02-17T03:28:13.985Z,48.30
2019-02-17T03:30:42.837Z,47.05
2019-02-17T03:33:13.145Z,48.42
2019-02-17T03:35:42.102Z,47.13
2019-02-17T03:38:11.236Z,47.73
2019-02-17T03:40:40.235Z,50.03
2019-02-17T03:43:09.301Z,49.08
2019-02-17T03:45:38.352Z,49.55
2019-02-17T03:48:07.537Z,54.98
2019-02-17T03:50:36.596Z,56.60
2019-02-17T03:53:05.596Z,50.08
2019-02-17T03:55:34.897Z,48.73
2019-02-17T03:58:03.958Z,48.00
2019-02-17T04:00:32.804Z,46.37
2019-02-17T04:03:01.887Z,46.60
2019-02-17T04:05:32.312Z,48.78
2019-02-17T04:08:01.217Z,51.43
2019-02-17T04:10:30.196Z,50.63
2019-02-17T04:12:59.224Z,49.08
2019-02-17T04:15:28.188Z,46.10
2019-02-17T04:17:57.177Z,49.27
2019-02-17T04:20:26.305Z,44.93
2019-02-17T04:22:55.328Z,47.62
2019-02-17T04:25:24.255Z,46.00
2019-02-17T04:27:53.186Z,50.55
2019-02-17T04:30:29.296Z,55.65
2019-02-17T04:32:52.876Z,55.20
2019-02-17T04:35:21.766Z,51.90
2019-02-17T04:37:50.615Z,49.57
2019-02-17T04:40:19.615Z,50.58
2019-02-17T04:42:48.663Z,44.27
2019-02-17T04:45:17.596Z,45.05
2019-02-17T04:47:46.553Z,43.78
2019-02-17T04:50:15.476Z,42.67
2019-02-17T04:52:44.415Z,43.28
2019-02-17T04:55:13.435Z,42.23
2019-02-17T04:57:42.366Z,41.50
2019-02-17T05:00:11.435Z,40.78
2019-02-17T05:02:40.760Z,40.03
2019-02-17T05:05:09.774Z,40.17
2019-02-17T05:07:39.071Z,43.33
2019-02-17T05:10:08.283Z,40.63
2019-02-17T05:12:37.245Z,42.45
2019-02-17T05:15:06.336Z,38.80
2019-02-17T05:17:35.675Z,41.37
2019-02-17T05:20:05.304Z,44.08
2019-02-17T05:22:34.195Z,45.77
2019-02-17T05:25:03.164Z,39.65
2019-02-17T05:27:32.016Z,37.70
2019-02-17T05:30:00.960Z,44.70
2019-02-17T05:32:29.996Z,43.92
2019-02-17T05:34:59.177Z,39.40
2019-02-17T05:37:28.322Z,38.95
2019-02-17T05:39:57.182Z,39.05
2019-02-17T05:42:26.033Z,34.80
2019-02-17T05:44:55.310Z,34.53
2019-02-17T05:47:24.215Z,34.92
2019-02-17T05:49:53.405Z,34.65
2019-02-17T05:52:22.421Z,38.85
2019-02-17T05:54:51.301Z,35.85
2019-02-17T05:57:20.248Z,37.58
2019-02-17T05:59:49.101Z,38.10
2019-02-17T06:02:18.070Z,39.03
2019-02-17T06:04:47.000Z,39.48
2019-02-17T06:07:15.859Z,40.17
2019-02-17T06:09:45.133Z,39.67
2019-02-17T06:12:13.969Z,37.70
2019-02-17T06:14:42.964Z,36.70
2019-02-17T06:17:11.816Z,36.20
2019-02-17T06:19:40.701Z,36.48
2019-02-17T06:22:09.649Z,38.08
2019-02-17T06:24:38.576Z,35.80
2019-02-17T06:27:07.475Z,34.43
2019-02-17T06:29:36.472Z,35.08
2019-02-17T06:32:05.345Z,34.92
2019-02-17T06:34:34.528Z,35.98
2019-02-17T06:37:03.460Z,35.17
2019-02-17T06:39:32.373Z,32.17
2019-02-17T06:42:01.212Z,33.78
2019-02-17T06:44:30.064Z,34.38
2019-02-17T06:47:01.802Z,33.70
2019-02-17T06:49:30.994Z,32.48
2019-02-17T06:51:59.954Z,32.98
2019-02-17T06:54:28.916Z,32.03
2019-02-17T06:57:17.241Z,34.35
2019-02-17T06:59:46.108Z,34.53
2019-02-17T07:02:15.027Z,32.65
2019-02-17T07:05:21.563Z,33.00
2019-02-17T07:07:50.835Z,32.93
2019-02-17T07:10:19.726Z,33.93
2019-02-17T07:12:48.652Z,31.10
2019-02-17T07:15:17.716Z,31.15
2019-02-17T07:17:46.949Z,31.70
2019-02-17T07:20:15.826Z,32.55
2019-02-17T07:22:44.710Z,29.75
2019-02-17T07:25:13.723Z,29.50
2019-02-17T07:27:43.008Z,28.85
2019-02-17T07:30:12.091Z,29.55
2019-02-17T07:32:41.033Z,28.83
2019-02-17T07:35:10.064Z,28.67
2019-02-17T07:37:38.928Z,28.87
2019-02-17T07:40:08.006Z,28.02
2019-02-17T07:42:36.958Z,26.82
2019-02-17T07:45:06.029Z,29.65
2019-02-17T07:47:34.982Z,24.63
2019-02-17T07:50:04.100Z,25.23
2019-02-17T07:52:34.361Z,26.20
2019-02-17T07:55:03.422Z,26.70
2019-02-17T07:57:32.336Z,26.48
2019-02-17T08:00:01.327Z,25.27
2019-02-17T08:02:30.252Z,27.90
2019-02-17T08:04:59.140Z,28.92
2019-02-17T08:07:28.080Z,29.25
2019-02-17T08:09:57.026Z,28.00
2019-02-17T08:12:25.913Z,27.45
2019-02-17T08:14:54.852Z,24.63
2019-02-17T08:17:23.783Z,24.23
2019-02-17T08:19:52.652Z,26.05
2019-02-17T08:22:21.597Z,26.52
2019-02-17T08:24:50.488Z,27.65
2019-02-17T08:27:19.416Z,28.60
2019-02-17T08:29:48.440Z,26.60
2019-02-17T08:32:17.688Z,27.62
2019-02-17T08:34:47.042Z,25.82
2019-02-17T08:37:16.165Z,26.00
2019-02-17T08:39:45.250Z,25.88
2019-02-17T08:42:14.586Z,23.25
2019-02-17T08:44:43.604Z,21.97
2019-02-17T08:47:12.551Z,20.97
2019-02-17T08:49:41.528Z,20.80
2019-02-17T08:52:10.363Z,20.97
2019-02-17T08:54:39.375Z,19.98
2019-02-17T08:57:08.236Z,20.17
2019-02-17T08:59:37.105Z,19.67
2019-02-17T09:02:06.464Z,19.75
2019-02-17T09:04:36.264Z,19.17
2019-02-17T09:07:06.432Z,20.47
2019-02-17T09:09:35.525Z,20.23
2019-02-17T09:12:04.870Z,20.50
2019-02-17T09:14:33.746Z,21.57
2019-02-17T09:17:02.702Z,20.97
2019-02-17T09:19:31.773Z,21.37
2019-02-17T09:22:00.709Z,22.58
2019-02-17T09:24:29.733Z,20.95
2019-02-17T09:26:58.649Z,20.57
2019-02-17T09:29:27.540Z,21.00
2019-02-17T09:31:56.542Z,20.40
2019-02-17T09:34:25.496Z,20.65
2019-02-17T09:36:54.452Z,20.05
2019-02-17T09:39:23.512Z,19.45
2019-02-17T09:41:52.472Z,18.50
2019-02-17T09:44:21.521Z,18.50
2019-02-17T09:46:50.592Z,17.00
2019-02-17T09:49:19.561Z,18.20
2019-02-17T09:51:48.531Z,17.90
2019-02-17T09:54:17.468Z,17.27
2019-02-17T09:56:46.436Z,16.75
2019-02-17T09:59:15.302Z,16.35
2019-02-17T10:01:44.323Z,17.17
2019-02-17T10:04:13.312Z,16.37
2019-02-17T10:06:42.225Z,16.40
2019-02-17T10:09:11.184Z,16.70
2019-02-17T10:11:40.196Z,16.07
2019-02-17T10:14:09.103Z,16.37
2019-02-17T10:16:38.072Z,14.43
2019-02-17T10:19:06.944Z,14.47
2019-02-17T10:21:35.928Z,14.73
2019-02-17T10:24:04.948Z,14.85
2019-02-17T10:26:33.840Z,14.58
2019-02-17T10:29:02.889Z,14.70
2019-02-17T10:31:31.941Z,15.78
2019-02-17T10:34:00.983Z,16.23
2019-02-17T10:36:29.852Z,15.60
2019-02-17T10:38:58.981Z,14.65
2019-02-17T10:41:28.001Z,13.40
2019-02-17T10:43:57.017Z,15.32
2019-02-17T10:46:25.916Z,15.32
2019-02-17T10:48:54.915Z,14.70
2019-02-17T10:51:23.888Z,14.10
2019-02-17T10:53:52.835Z,14.07
2019-02-17T10:56:21.786Z,13.70
2019-02-17T10:58:51.128Z,13.20
2019-02-17T11:01:20.088Z,12.60
2019-02-17T11:04:06.258Z,13.23
2019-02-17T11:06:35.184Z,12.63
2019-02-17T11:09:09.963Z,12.07
2019-02-17T11:11:38.900Z,11.90
2019-02-17T11:14:07.920Z,11.85
2019-02-17T11:16:36.779Z,11.60
2019-02-17T11:19:05.805Z,12.07
2019-02-17T11:21:35.086Z,11.77
2019-02-17T11:24:04.044Z,11.33
2019-02-17T11:26:32.898Z,10.93
2019-02-17T11:29:01.831Z,10.70
2019-02-17T11:31:30.884Z,10.82
2019-02-17T11:33:59.880Z,11.20
2019-02-17T11:36:28.828Z,10.80
2019-02-17T11:38:57.810Z,9.70
2019-02-17T11:41:27.559Z,10.40
2019-02-17T11:43:56.559Z,10.35
2019-02-17T11:46:25.516Z,10.65
2019-02-17T11:48:54.720Z,10.82
2019-02-17T11:51:23.559Z,10.77
2019-02-17T11:53:52.531Z,10.80
2019-02-17T11:56:21.542Z,11.43
2019-02-17T11:58:50.479Z,11.25
2019-02-17T12:01:19.544Z,11.65
2019-02-17T12:03:48.506Z,11.53
2019-02-17T12:06:17.529Z,11.08
2019-02-17T12:08:48.036Z,10.75
2019-02-17T12:11:17.028Z,10.88
2019-02-17T12:13:46.091Z,10.98
2019-02-17T12:16:15.115Z,10.88
2019-02-17T12:18:44.122Z,11.00
2019-02-17T12:21:38.421Z,11.13
2019-02-17T12:24:11.617Z,11.40
2019-02-17T12:27:06.120Z,10.47
2019-02-17T12:29:40.516Z,10.70
2019-02-17T12:32:09.453Z,10.23
2019-02-17T12:34:38.341Z,9.40
2019-02-17T12:37:07.280Z,9.58
2019-02-17T12:39:36.233Z,10.00
2019-02-17T12:42:05.264Z,10.30
2019-02-17T12:44:35.659Z,9.80
2019-02-17T12:47:04.930Z,9.13
2019-02-17T12:49:34.244Z,9.23
2019-02-17T12:52:03.269Z,9.45
2019-02-17T12:54:32.212Z,9.57
2019-02-17T12:57:01.622Z,9.60
2019-02-17T12:59:30.470Z,9.30
2019-02-17T13:02:00.084Z,8.80
2019-02-17T13:04:29.020Z,8.90
2019-02-17T13:06:57.938Z,8.80
2019-02-17T13:09:29.848Z,8.93
2019-02-17T13:11:58.817Z,9.35
2019-02-17T13:14:27.956Z,9.78
2019-02-17T13:16:57.168Z,9.73
2019-02-17T13:19:26.188Z,9.43
2019-02-17T13:21:55.160Z,9.23
2019-02-17T13:24:24.110Z,9.03
2019-02-17T13:26:53.108Z,8.70
2019-02-17T13:29:22.047Z,8.90
2019-02-17T13:31:50.943Z,8.50
2019-02-17T13:34:20.129Z,8.83
2019-02-17T13:36:49.064Z,8.15
2019-02-17T13:39:17.932Z,8.55
2019-02-17T13:41:47.043Z,8.60
2019-02-17T13:44:16.669Z,8.68
2019-02-17T13:46:46.015Z,8.13
2019-02-17T13:49:15.113Z,8.18
2019-02-17T13:51:45.580Z,7.70
2019-02-17T13:54:14.485Z,7.40
2019-02-17T13:56:43.456Z,8.20
2019-02-17T13:59:12.416Z,8.20
2019-02-17T14:01:41.356Z,8.50
2019-02-17T14:04:10.396Z,7.67
2019-02-17T14:06:39.436Z,7.80
2019-02-17T14:09:08.870Z,8.38
2019-02-17T14:11:37.893Z,7.92
2019-02-17T14:14:06.750Z,8.15
2019-02-17T14:16:35.605Z,8.35
2019-02-17T14:19:04.590Z,8.68
2019-02-17T14:21:33.470Z,9.13
2019-02-17T14:24:03.820Z,8.88
2019-02-17T14:26:33.035Z,9.20
2019-02-17T14:29:04.205Z,8.88
2019-02-17T14:31:33.196Z,8.50
2019-02-17T14:34:02.248Z,8.20
2019-02-17T14:36:31.125Z,8.93
2019-02-17T14:38:59.988Z,8.50
2019-02-17T14:41:28.985Z,9.28
2019-02-17T14:43:57.832Z,9.43
2019-02-17T14:46:26.784Z,9.68
2019-02-17T14:48:55.681Z,10.13
2019-02-17T14:51:24.580Z,10.05
2019-02-17T14:53:53.513Z,9.85
2019-02-17T14:56:22.556Z,10.08
2019-02-17T14:58:56.110Z,10.23
2019-02-17T15:01:25.213Z,9.98
2019-02-17T15:03:56.191Z,10.63
2019-02-17T15:06:25.245Z,10.63
2019-02-17T15:08:54.339Z,10.20
2019-02-17T15:11:23.296Z,10.30
2019-02-17T15:13:55.369Z,10.90
2019-02-17T15:16:24.328Z,11.10
2019-02-17T15:18:55.667Z,10.90
2019-02-17T15:21:24.612Z,10.60
2019-02-17T15:23:53.548Z,10.40
2019-02-17T15:26:22.595Z,10.10
2019-02-17T15:28:51.750Z,10.23
2019-02-17T15:31:20.820Z,10.23
2019-02-17T15:33:49.962Z,9.97
2019-02-17T15:36:18.879Z,10.00
2019-02-17T15:38:49.279Z,9.85
2019-02-17T15:41:19.808Z,10.13
2019-02-17T15:43:48.788Z,9.85
2019-02-17T15:46:17.672Z,10.43
2019-02-17T15:48:46.568Z,10.57
2019-02-17T15:51:15.564Z,10.00
2019-02-17T15:53:44.506Z,9.35
2019-02-17T15:56:13.424Z,9.63
2019-02-17T15:58:45.101Z,9.40
2019-02-17T16:01:14.264Z,9.55
2019-02-17T16:03:44.941Z,10.03
2019-02-17T16:06:15.362Z,9.63
2019-02-17T16:08:44.245Z,9.73
2019-02-17T16:11:13.159Z,9.58
2019-02-17T16:13:42.142Z,8.80
2019-02-17T16:16:11.123Z,9.53
2019-02-17T16:18:40.447Z,9.65
2019-02-17T16:21:09.329Z,10.10
2019-02-17T16:23:38.261Z,9.90
2019-02-17T16:26:09.564Z,10.03
2019-02-17T16:28:38.452Z,10.20
2019-02-17T16:31:07.329Z,9.73
2019-02-17T16:33:36.260Z,10.45
2019-02-17T16:36:05.248Z,10.80
2019-02-17T16:38:34.136Z,10.85
2019-02-17T16:41:03.055Z,10.90
2019-02-17T16:43:32.011Z,10.68
2019-02-17T16:46:00.953Z,10.68
2019-02-17T16:48:29.952Z,10.75
2019-02-17T16:51:00.941Z,10.93
2019-02-17T16:53:29.636Z,11.65
2019-02-17T16:55:58.624Z,11.48
2019-02-17T16:58:27.668Z,11.00
2019-02-17T17:00:56.710Z,11.50
2019-02-17T17:03:26.637Z,12.43
2019-02-17T17:05:55.708Z,13.13
2019-02-17T17:08:24.803Z,12.07
2019-02-17T17:10:53.779Z,12.30
2019-02-17T17:13:22.803Z,12.03
2019-02-17T17:15:51.837Z,12.10
2019-02-17T17:18:20.756Z,12.35
2019-02-17T17:20:49.714Z,12.18
2019-02-17T17:23:18.708Z,12.75
2019-02-17T17:25:47.763Z,12.05
2019-02-17T17:28:16.710Z,12.45
2019-02-17T17:30:45.649Z,12.40
2019-02-17T17:33:15.182Z,12.40
2019-02-17T17:35:44.228Z,12.30
2019-02-17T17:38:13.133Z,12.98
2019-02-17T17:40:42.313Z,13.10
2019-02-17T17:43:11.163Z,12.95
2019-02-17T17:45:40.039Z,12.78
2019-02-17T17:48:08.949Z,12.10
2019-02-17T17:50:37.847Z,12.70
2019-02-17T17:53:06.834Z,13.28
2019-02-17T17:55:35.858Z,13.43
2019-02-17T17:58:05.141Z,14.40
2019-02-17T18:00:34.996Z,15.28
2019-02-17T18:03:04.392Z,15.30
2019-02-17T18:05:33.449Z,16.05
2019-02-17T18:08:02.525Z,17.90
2019-02-17T18:10:31.537Z,17.10
2019-02-17T18:13:01.060Z,17.15
2019-02-17T18:15:31.275Z,19.50
2019-02-17T18:18:00.168Z,23.02
2019-02-17T18:20:29.151Z,25.65
2019-02-17T18:22:58.056Z,25.17
2019-02-17T18:25:27.021Z,26.15
2019-02-17T18:27:55.962Z,28.67
2019-02-17T18:30:26.249Z,27.35
2019-02-17T18:32:55.152Z,28.07
2019-02-17T18:35:24.100Z,28.15
2019-02-17T18:37:53.015Z,27.58
2019-02-17T18:40:22.012Z,26.55
2019-02-17T18:42:51.028Z,29.55
2019-02-17T18:45:19.963Z,27.17
2019-02-17T18:47:49.007Z,25.72
2019-02-17T18:50:18.025Z,25.15
2019-02-17T18:52:47.212Z,23.05
2019-02-17T18:55:16.297Z,24.73
2019-02-17T18:57:49.897Z,23.83
2019-02-17T19:00:17.773Z,23.85
2019-02-17T19:02:46.773Z,24.50
2019-02-17T19:05:15.779Z,25.90
2019-02-17T19:07:44.752Z,26.02
2019-02-17T19:10:14.112Z,23.38
2019-02-17T19:12:43.263Z,23.62
2019-02-17T19:15:13.392Z,23.62
2019-02-17T19:17:42.311Z,23.00
2019-02-17T19:20:14.167Z,23.67
2019-02-17T19:22:43.108Z,24.25
2019-02-17T19:25:12.527Z,24.23
2019-02-17T19:27:41.420Z,24.77
2019-02-17T19:30:12.635Z,24.43
2019-02-17T19:32:41.760Z,25.57
2019-02-17T19:35:13.259Z,27.77
2019-02-17T19:37:43.552Z,29.48
2019-02-17T19:40:13.983Z,31.55
2019-02-17T19:42:45.593Z,32.57
2019-02-17T19:45:14.688Z,32.08
2019-02-17T19:47:43.737Z,36.55
2019-02-17T19:50:12.913Z,34.38
2019-02-17T19:52:41.912Z,35.73
2019-02-17T19:55:10.949Z,32.28
2019-02-17T19:57:40.552Z,33.60
2019-02-17T20:00:12.164Z,35.55
2019-02-17T20:03:06.533Z,35.92
2019-02-17T20:05:41.045Z,33.90
2019-02-17T20:08:09.963Z,33.60
2019-02-17T20:10:39.005Z,34.45
2019-02-17T20:13:08.573Z,31.25
2019-02-17T20:15:37.808Z,30.12
2019-02-17T20:18:06.833Z,30.25
2019-02-17T20:20:36.101Z,29.65
2019-02-17T20:23:04.949Z,29.87
2019-02-17T20:25:33.816Z,30.12
2019-02-17T20:28:02.790Z,30.00
2019-02-17T20:30:31.744Z,30.60
2019-02-17T20:33:00.768Z,31.70
2019-02-17T20:35:30.000Z,31.68
2019-02-17T20:37:59.004Z,32.30
2019-02-17T20:40:28.012Z,31.57
2019-02-17T20:42:56.885Z,37.63
2019-02-17T20:45:26.308Z,34.03
2019-02-17T20:47:57.663Z,33.20
2019-02-17T20:50:29.542Z,33.02
2019-02-17T20:52:58.967Z,34.33
2019-02-17T20:55:27.910Z,33.13
2019-02-17T20:57:56.924Z,31.90
2019-02-17T21:00:27.700Z,30.10
2019-02-17T21:02:56.960Z,30.72
2019-02-17T21:05:26.028Z,31.15
2019-02-17T21:07:54.976Z,30.92
2019-02-17T21:10:23.934Z,30.12
2019-02-17T21:12:52.965Z,31.00
2019-02-17T21:15:22.304Z,29.00
2019-02-17T21:17:51.304Z,29.12
2019-02-17T21:20:22.445Z,29.20
2019-02-17T21:22:53.024Z,30.97
2019-02-17T21:25:22.186Z,29.52
2019-02-17T21:27:51.260Z,29.90
2019-02-17T21:30:20.285Z,30.52
2019-02-17T21:32:49.343Z,30.50
2019-02-17T21:35:19.292Z,30.05
2019-02-17T21:37:49.108Z,29.65
2019-02-17T21:40:18.498Z,32.10
2019-02-17T21:42:49.563Z,30.68
2019-02-17T21:45:18.469Z,30.65
2019-02-17T21:47:49.573Z,31.00
2019-02-17T21:50:18.622Z,31.12
2019-02-17T21:52:47.455Z,33.15
2019-02-17T21:55:16.472Z,31.12
2019-02-17T21:57:45.935Z,32.95
2019-02-17T22:00:16.713Z,32.10
2019-02-17T22:02:45.739Z,32.45
2019-02-17T22:05:15.025Z,31.60
2019-02-17T22:07:44.040Z,31.17
2019-02-17T22:10:13.544Z,32.00
2019-02-17T22:12:42.579Z,31.70
2019-02-17T22:15:13.333Z,31.45
2019-02-17T22:17:42.567Z,32.70
2019-02-17T22:20:12.209Z,31.62
2019-02-17T22:22:41.253Z,32.20
2019-02-17T22:25:10.482Z,32.50
2019-02-17T22:27:40.111Z,33.73
2019-02-17T22:30:09.432Z,31.37
2019-02-17T22:32:38.437Z,33.67
2019-02-17T22:35:07.487Z,31.52
2019-02-17T22:37:38.644Z,33.55
2019-02-17T22:40:08.329Z,34.40
2019-02-17T22:42:37.185Z,33.10
2019-02-17T22:45:06.863Z,33.83
2019-02-17T22:47:35.763Z,34.03
2019-02-17T22:50:08.217Z,33.83
2019-02-17T22:52:37.716Z,34.27
2019-02-17T22:55:07.774Z,34.25
2019-02-17T22:57:36.809Z,32.58
2019-02-17T23:00:24.649Z,31.97
2019-02-17T23:02:53.712Z,33.48
2019-02-17T23:05:22.738Z,32.95
2019-02-17T23:07:51.680Z,33.10
2019-02-17T23:10:23.840Z,33.55
2019-02-17T23:12:52.859Z,35.40
2019-02-17T23:15:21.900Z,34.70
2019-02-17T23:17:50.833Z,35.60
2019-02-17T23:20:20.233Z,33.65
2019-02-17T23:22:49.239Z,32.42
2019-02-17T23:25:18.550Z,36.43
2019-02-17T23:27:50.372Z,34.53
2019-02-17T23:30:26.337Z,33.98
2019-02-17T23:32:55.288Z,32.48
2019-02-17T23:35:24.952Z,33.38
2019-02-17T23:37:53.858Z,33.95
2019-02-17T23:40:22.815Z,32.25
2019-02-17T23:42:51.744Z,32.30
2019-02-17T23:45:20.862Z,32.80
2019-02-17T23:47:49.801Z,33.30
2019-02-17T23:50:18.834Z,32.60
2019-02-17T23:52:48.154Z,32.23
2019-02-17T23:55:17.147Z,31.97
2019-02-17T23:57:46.064Z,32.85
